sensor_id;sensor_type;location;lat;lon;timestamp;temperature;humidity
3312;DHT22;1668;49.648;8.570;2022-09-06T00:01:55;20.90;81.90
3312;DHT22;1668;49.648;8.570;2022-09-06T00:04:23;20.80;83.20
3312;DHT22;1668;49.648;8.570;2022-09-06T00:06:50;20.80;83.40
3312;DHT22;1668;49.648;8.570;2022-09-06T00:09:17;20.80;83.40
3312;DHT22;1668;49.648;8.570;2022-09-06T00:11:44;20.80;83.70
3312;DHT22;1668;49.648;8.570;2022-09-06T00:14:11;20.80;83.80
3312;DHT22;1668;49.648;8.570;2022-09-06T00:16:37;20.80;84.20
3312;DHT22;1668;49.648;8.570;2022-09-06T00:19:06;20.80;84.40
3312;DHT22;1668;49.648;8.570;2022-09-06T00:21:33;20.80;84.40
3312;DHT22;1668;49.648;8.570;2022-09-06T00:24:00;20.80;85.20
3312;DHT22;1668;49.648;8.570;2022-09-06T00:26:28;20.80;86.10
3312;DHT22;1668;49.648;8.570;2022-09-06T00:28:55;20.80;86.90
3312;DHT22;1668;49.648;8.570;2022-09-06T00:31:23;20.70;87.20
3312;DHT22;1668;49.648;8.570;2022-09-06T00:33:51;20.70;88.10
3312;DHT22;1668;49.648;8.570;2022-09-06T00:36:20;20.70;89.30
3312;DHT22;1668;49.648;8.570;2022-09-06T00:38:47;20.70;88.70
3312;DHT22;1668;49.648;8.570;2022-09-06T00:41:15;20.70;89.90
3312;DHT22;1668;49.648;8.570;2022-09-06T00:43:43;20.70;90.40
3312;DHT22;1668;49.648;8.570;2022-09-06T00:46:13;20.60;90.30
3312;DHT22;1668;49.648;8.570;2022-09-06T00:48:41;20.60;90.80
3312;DHT22;1668;49.648;8.570;2022-09-06T00:51:10;20.60;91.40
3312;DHT22;1668;49.648;8.570;2022-09-06T00:53:40;20.50;92.10
3312;DHT22;1668;49.648;8.570;2022-09-06T00:56:06;20.50;92.30
3312;DHT22;1668;49.648;8.570;2022-09-06T00:58:34;20.50;92.70
3312;DHT22;1668;49.648;8.570;2022-09-06T01:01:02;20.50;93.40
3312;DHT22;1668;49.648;8.570;2022-09-06T01:03:29;20.40;93.30
3312;DHT22;1668;49.648;8.570;2022-09-06T01:06:03;20.40;93.60
3312;DHT22;1668;49.648;8.570;2022-09-06T01:08:41;20.40;93.70
3312;DHT22;1668;49.648;8.570;2022-09-06T01:11:25;20.30;93.60
3312;DHT22;1668;49.648;8.570;2022-09-06T01:14:02;20.30;93.60
3312;DHT22;1668;49.648;8.570;2022-09-06T01:16:37;20.30;93.70
3312;DHT22;1668;49.648;8.570;2022-09-06T01:19:33;20.30;94.00
3312;DHT22;1668;49.648;8.570;2022-09-06T01:22:12;20.30;94.10
3312;DHT22;1668;49.648;8.570;2022-09-06T01:25:03;20.30;94.40
3312;DHT22;1668;49.648;8.570;2022-09-06T01:30:31;20.30;94.60
3312;DHT22;1668;49.648;8.570;2022-09-06T01:33:11;20.30;94.90
3312;DHT22;1668;49.648;8.570;2022-09-06T01:35:44;20.20;95.00
3312;DHT22;1668;49.648;8.570;2022-09-06T01:38:13;20.20;95.40
3312;DHT22;1668;49.648;8.570;2022-09-06T01:40:41;20.00;94.60
3312;DHT22;1668;49.648;8.570;2022-09-06T01:43:11;19.90;94.80
3312;DHT22;1668;49.648;8.570;2022-09-06T01:45:45;19.90;94.80
3312;DHT22;1668;49.648;8.570;2022-09-06T01:48:19;19.90;95.40
3312;DHT22;1668;49.648;8.570;2022-09-06T01:50:57;19.90;97.00
3312;DHT22;1668;49.648;8.570;2022-09-06T01:53:54;20.00;97.90
3312;DHT22;1668;49.648;8.570;2022-09-06T01:56:32;20.00;99.30
3312;DHT22;1668;49.648;8.570;2022-09-06T01:59:31;20.10;99.90
3312;DHT22;1668;49.648;8.570;2022-09-06T02:02:06;20.20;99.90
3312;DHT22;1668;49.648;8.570;2022-09-06T02:04:42;20.30;99.90
3312;DHT22;1668;49.648;8.570;2022-09-06T02:07:14;20.40;99.90
3312;DHT22;1668;49.648;8.570;2022-09-06T02:09:45;20.40;99.90
3312;DHT22;1668;49.648;8.570;2022-09-06T02:12:14;20.50;99.90
3312;DHT22;1668;49.648;8.570;2022-09-06T02:14:48;20.50;99.90
3312;DHT22;1668;49.648;8.570;2022-09-06T02:17:20;20.50;99.90
3312;DHT22;1668;49.648;8.570;2022-09-06T02:19:52;20.50;99.90
3312;DHT22;1668;49.648;8.570;2022-09-06T02:22:23;20.50;99.90
3312;DHT22;1668;49.648;8.570;2022-09-06T02:24:52;20.50;99.90
3312;DHT22;1668;49.648;8.570;2022-09-06T02:27:19;20.40;99.90
3312;DHT22;1668;49.648;8.570;2022-09-06T02:29:47;20.40;99.90
3312;DHT22;1668;49.648;8.570;2022-09-06T02:32:18;20.40;99.90
3312;DHT22;1668;49.648;8.570;2022-09-06T02:34:46;20.40;99.90
3312;DHT22;1668;49.648;8.570;2022-09-06T02:37:14;20.40;99.90
3312;DHT22;1668;49.648;8.570;2022-09-06T02:39:41;20.40;99.90
3312;DHT22;1668;49.648;8.570;2022-09-06T02:42:10;20.40;99.90
3312;DHT22;1668;49.648;8.570;2022-09-06T02:44:38;20.40;99.90
3312;DHT22;1668;49.648;8.570;2022-09-06T02:47:06;20.40;99.90
3312;DHT22;1668;49.648;8.570;2022-09-06T02:49:33;20.30;99.90
3312;DHT22;1668;49.648;8.570;2022-09-06T02:52:00;20.30;99.90
3312;DHT22;1668;49.648;8.570;2022-09-06T02:54:27;20.30;99.90
3312;DHT22;1668;49.648;8.570;2022-09-06T02:56:55;20.30;99.90
3312;DHT22;1668;49.648;8.570;2022-09-06T02:59:22;20.30;99.90
3312;DHT22;1668;49.648;8.570;2022-09-06T03:01:49;20.30;99.90
3312;DHT22;1668;49.648;8.570;2022-09-06T03:04:17;20.30;99.90
3312;DHT22;1668;49.648;8.570;2022-09-06T03:06:44;20.30;99.90
3312;DHT22;1668;49.648;8.570;2022-09-06T03:09:11;20.30;99.90
3312;DHT22;1668;49.648;8.570;2022-09-06T03:11:38;20.30;99.90
3312;DHT22;1668;49.648;8.570;2022-09-06T03:14:05;20.30;99.90
3312;DHT22;1668;49.648;8.570;2022-09-06T03:16:32;20.30;99.90
3312;DHT22;1668;49.648;8.570;2022-09-06T03:18:59;20.30;99.90
3312;DHT22;1668;49.648;8.570;2022-09-06T03:21:27;20.20;99.90
3312;DHT22;1668;49.648;8.570;2022-09-06T03:23:54;20.20;99.90
3312;DHT22;1668;49.648;8.570;2022-09-06T03:26:21;20.20;99.90
3312;DHT22;1668;49.648;8.570;2022-09-06T03:28:48;20.20;99.90
3312;DHT22;1668;49.648;8.570;2022-09-06T03:31:15;20.10;99.90
3312;DHT22;1668;49.648;8.570;2022-09-06T03:33:42;20.10;99.90
3312;DHT22;1668;49.648;8.570;2022-09-06T03:36:08;20.10;99.90
3312;DHT22;1668;49.648;8.570;2022-09-06T03:38:37;20.00;99.90
3312;DHT22;1668;49.648;8.570;2022-09-06T03:41:04;20.00;99.90
3312;DHT22;1668;49.648;8.570;2022-09-06T03:43:31;20.00;99.90
3312;DHT22;1668;49.648;8.570;2022-09-06T03:45:58;19.90;99.90
3312;DHT22;1668;49.648;8.570;2022-09-06T03:48:27;19.90;99.90
3312;DHT22;1668;49.648;8.570;2022-09-06T03:50:55;19.90;99.90
3312;DHT22;1668;49.648;8.570;2022-09-06T03:53:24;19.80;99.90
3312;DHT22;1668;49.648;8.570;2022-09-06T03:55:54;19.70;99.90
3312;DHT22;1668;49.648;8.570;2022-09-06T03:58:23;19.70;99.90
3312;DHT22;1668;49.648;8.570;2022-09-06T04:00:59;19.70;99.90
3312;DHT22;1668;49.648;8.570;2022-09-06T04:03:26;19.70;99.90
3312;DHT22;1668;49.648;8.570;2022-09-06T04:05:53;19.70;99.90
3312;DHT22;1668;49.648;8.570;2022-09-06T04:08:20;19.70;99.90
3312;DHT22;1668;49.648;8.570;2022-09-06T04:10:48;19.70;99.90
3312;DHT22;1668;49.648;8.570;2022-09-06T04:13:17;19.80;99.90
3312;DHT22;1668;49.648;8.570;2022-09-06T04:15:44;19.70;99.90
3312;DHT22;1668;49.648;8.570;2022-09-06T04:18:12;19.70;99.90
3312;DHT22;1668;49.648;8.570;2022-09-06T04:20:39;19.70;99.90
3312;DHT22;1668;49.648;8.570;2022-09-06T04:23:05;19.70;99.90
3312;DHT22;1668;49.648;8.570;2022-09-06T04:25:33;19.70;99.90
3312;DHT22;1668;49.648;8.570;2022-09-06T04:28:00;19.60;99.90
3312;DHT22;1668;49.648;8.570;2022-09-06T04:30:29;19.60;99.90
3312;DHT22;1668;49.648;8.570;2022-09-06T04:32:56;19.50;99.90
3312;DHT22;1668;49.648;8.570;2022-09-06T04:35:22;19.50;99.90
3312;DHT22;1668;49.648;8.570;2022-09-06T04:37:49;19.50;99.90
3312;DHT22;1668;49.648;8.570;2022-09-06T04:40:16;19.50;99.90
3312;DHT22;1668;49.648;8.570;2022-09-06T04:42:43;19.50;99.90
3312;DHT22;1668;49.648;8.570;2022-09-06T04:45:10;19.50;99.90
3312;DHT22;1668;49.648;8.570;2022-09-06T04:47:39;19.40;99.90
3312;DHT22;1668;49.648;8.570;2022-09-06T04:50:06;19.40;99.90
3312;DHT22;1668;49.648;8.570;2022-09-06T04:52:33;19.40;99.90
3312;DHT22;1668;49.648;8.570;2022-09-06T04:55:00;19.30;99.90
3312;DHT22;1668;49.648;8.570;2022-09-06T04:57:27;19.30;99.90
3312;DHT22;1668;49.648;8.570;2022-09-06T04:59:54;19.20;99.90
3312;DHT22;1668;49.648;8.570;2022-09-06T05:02:20;19.20;99.90
3312;DHT22;1668;49.648;8.570;2022-09-06T05:04:49;19.20;99.90
3312;DHT22;1668;49.648;8.570;2022-09-06T05:07:16;19.10;99.90
3312;DHT22;1668;49.648;8.570;2022-09-06T05:09:43;19.00;99.90
3312;DHT22;1668;49.648;8.570;2022-09-06T05:12:10;19.00;99.90
3312;DHT22;1668;49.648;8.570;2022-09-06T05:14:37;18.90;99.90
3312;DHT22;1668;49.648;8.570;2022-09-06T05:17:04;18.80;99.90
3312;DHT22;1668;49.648;8.570;2022-09-06T05:19:31;18.80;99.90
3312;DHT22;1668;49.648;8.570;2022-09-06T05:21:59;18.80;99.90
3312;DHT22;1668;49.648;8.570;2022-09-06T05:24:26;18.80;99.90
3312;DHT22;1668;49.648;8.570;2022-09-06T05:26:53;18.80;99.90
3312;DHT22;1668;49.648;8.570;2022-09-06T05:29:20;18.80;99.90
3312;DHT22;1668;49.648;8.570;2022-09-06T05:31:46;18.80;99.90
3312;DHT22;1668;49.648;8.570;2022-09-06T05:34:13;18.80;99.90
3312;DHT22;1668;49.648;8.570;2022-09-06T05:36:40;18.90;99.90
3312;DHT22;1668;49.648;8.570;2022-09-06T05:39:09;18.90;99.90
3312;DHT22;1668;49.648;8.570;2022-09-06T05:41:35;18.90;99.90
3312;DHT22;1668;49.648;8.570;2022-09-06T05:44:02;18.90;99.90
3312;DHT22;1668;49.648;8.570;2022-09-06T05:46:29;18.90;99.90
3312;DHT22;1668;49.648;8.570;2022-09-06T05:48:57;18.90;99.90
3312;DHT22;1668;49.648;8.570;2022-09-06T05:51:26;18.90;99.90
3312;DHT22;1668;49.648;8.570;2022-09-06T05:53:53;18.90;99.90
3312;DHT22;1668;49.648;8.570;2022-09-06T05:56:21;18.90;99.90
3312;DHT22;1668;49.648;8.570;2022-09-06T05:58:49;18.90;99.90
3312;DHT22;1668;49.648;8.570;2022-09-06T06:01:17;19.00;99.90
3312;DHT22;1668;49.648;8.570;2022-09-06T06:03:49;18.90;99.90
3312;DHT22;1668;49.648;8.570;2022-09-06T06:06:17;19.00;99.90
3312;DHT22;1668;49.648;8.570;2022-09-06T06:08:44;19.00;99.90
3312;DHT22;1668;49.648;8.570;2022-09-06T06:11:11;19.00;99.90
3312;DHT22;1668;49.648;8.570;2022-09-06T06:13:40;19.00;99.90
3312;DHT22;1668;49.648;8.570;2022-09-06T06:16:09;19.00;99.90
3312;DHT22;1668;49.648;8.570;2022-09-06T06:18:36;19.00;99.90
3312;DHT22;1668;49.648;8.570;2022-09-06T06:21:11;19.00;99.90
3312;DHT22;1668;49.648;8.570;2022-09-06T06:23:39;19.00;99.90
3312;DHT22;1668;49.648;8.570;2022-09-06T06:26:07;19.00;99.90
3312;DHT22;1668;49.648;8.570;2022-09-06T06:28:35;19.00;99.90
3312;DHT22;1668;49.648;8.570;2022-09-06T06:31:05;19.10;99.90
3312;DHT22;1668;49.648;8.570;2022-09-06T06:33:32;19.10;99.90
3312;DHT22;1668;49.648;8.570;2022-09-06T06:36:02;19.10;99.90
3312;DHT22;1668;49.648;8.570;2022-09-06T06:38:30;19.10;99.90
3312;DHT22;1668;49.648;8.570;2022-09-06T06:40:58;19.20;99.90
3312;DHT22;1668;49.648;8.570;2022-09-06T06:43:25;19.20;99.90
3312;DHT22;1668;49.648;8.570;2022-09-06T06:45:52;19.20;99.90
3312;DHT22;1668;49.648;8.570;2022-09-06T06:48:21;19.20;99.90
3312;DHT22;1668;49.648;8.570;2022-09-06T06:50:48;19.30;99.90
3312;DHT22;1668;49.648;8.570;2022-09-06T06:53:15;19.30;99.90
3312;DHT22;1668;49.648;8.570;2022-09-06T06:55:45;19.40;99.90
3312;DHT22;1668;49.648;8.570;2022-09-06T06:58:13;19.40;99.90
3312;DHT22;1668;49.648;8.570;2022-09-06T07:00:40;19.50;99.90
3312;DHT22;1668;49.648;8.570;2022-09-06T07:03:07;19.50;99.90
3312;DHT22;1668;49.648;8.570;2022-09-06T07:05:36;19.60;99.90
3312;DHT22;1668;49.648;8.570;2022-09-06T07:08:04;19.60;99.90
3312;DHT22;1668;49.648;8.570;2022-09-06T07:10:31;19.70;99.90
3312;DHT22;1668;49.648;8.570;2022-09-06T07:12:58;19.70;99.90
3312;DHT22;1668;49.648;8.570;2022-09-06T07:15:25;19.80;99.90
3312;DHT22;1668;49.648;8.570;2022-09-06T07:17:53;19.80;99.90
3312;DHT22;1668;49.648;8.570;2022-09-06T07:20:21;19.90;99.90
3312;DHT22;1668;49.648;8.570;2022-09-06T07:22:58;19.90;99.90
3312;DHT22;1668;49.648;8.570;2022-09-06T07:25:26;19.90;99.90
3312;DHT22;1668;49.648;8.570;2022-09-06T07:27:57;20.00;99.90
3312;DHT22;1668;49.648;8.570;2022-09-06T07:30:27;20.00;99.90
3312;DHT22;1668;49.648;8.570;2022-09-06T07:32:54;20.10;99.90
3312;DHT22;1668;49.648;8.570;2022-09-06T07:35:21;20.10;99.90
3312;DHT22;1668;49.648;8.570;2022-09-06T07:37:53;20.20;99.90
3312;DHT22;1668;49.648;8.570;2022-09-06T07:40:22;20.20;99.90
3312;DHT22;1668;49.648;8.570;2022-09-06T07:42:49;20.20;99.90
3312;DHT22;1668;49.648;8.570;2022-09-06T07:45:16;20.30;99.90
3312;DHT22;1668;49.648;8.570;2022-09-06T07:47:42;20.30;99.90
3312;DHT22;1668;49.648;8.570;2022-09-06T07:50:10;20.40;99.90
3312;DHT22;1668;49.648;8.570;2022-09-06T07:52:37;20.40;99.90
3312;DHT22;1668;49.648;8.570;2022-09-06T07:55:04;20.40;99.90
3312;DHT22;1668;49.648;8.570;2022-09-06T07:57:33;20.50;99.90
3312;DHT22;1668;49.648;8.570;2022-09-06T07:59:59;20.50;99.90
3312;DHT22;1668;49.648;8.570;2022-09-06T08:02:26;20.50;99.90
3312;DHT22;1668;49.648;8.570;2022-09-06T08:04:53;20.60;99.90
3312;DHT22;1668;49.648;8.570;2022-09-06T08:07:21;20.60;99.90
3312;DHT22;1668;49.648;8.570;2022-09-06T08:09:50;20.60;99.90
3312;DHT22;1668;49.648;8.570;2022-09-06T08:12:16;20.70;99.90
3312;DHT22;1668;49.648;8.570;2022-09-06T08:14:45;20.70;99.90
3312;DHT22;1668;49.648;8.570;2022-09-06T08:17:11;20.70;99.90
3312;DHT22;1668;49.648;8.570;2022-09-06T08:19:38;20.80;99.90
3312;DHT22;1668;49.648;8.570;2022-09-06T08:22:05;20.80;99.90
3312;DHT22;1668;49.648;8.570;2022-09-06T08:24:32;20.80;99.90
3312;DHT22;1668;49.648;8.570;2022-09-06T08:27:00;20.80;99.90
3312;DHT22;1668;49.648;8.570;2022-09-06T08:29:27;20.90;99.90
3312;DHT22;1668;49.648;8.570;2022-09-06T08:31:55;20.90;99.90
3312;DHT22;1668;49.648;8.570;2022-09-06T08:34:22;21.00;99.90
3312;DHT22;1668;49.648;8.570;2022-09-06T08:36:49;21.10;99.90
3312;DHT22;1668;49.648;8.570;2022-09-06T08:39:16;21.20;99.90
3312;DHT22;1668;49.648;8.570;2022-09-06T08:41:49;21.20;99.90
3312;DHT22;1668;49.648;8.570;2022-09-06T08:44:19;21.30;99.90
3312;DHT22;1668;49.648;8.570;2022-09-06T08:46:53;21.40;99.90
3312;DHT22;1668;49.648;8.570;2022-09-06T08:49:23;21.40;99.90
3312;DHT22;1668;49.648;8.570;2022-09-06T08:52:11;21.40;99.90
3312;DHT22;1668;49.648;8.570;2022-09-06T08:54:49;21.50;99.90
3312;DHT22;1668;49.648;8.570;2022-09-06T08:57:30;21.60;99.90
3312;DHT22;1668;49.648;8.570;2022-09-06T09:00:02;21.60;99.90
3312;DHT22;1668;49.648;8.570;2022-09-06T09:02:41;21.60;99.90
3312;DHT22;1668;49.648;8.570;2022-09-06T09:05:20;21.70;99.90
3312;DHT22;1668;49.648;8.570;2022-09-06T09:07:53;21.70;99.90
3312;DHT22;1668;49.648;8.570;2022-09-06T09:10:25;21.80;99.90
3312;DHT22;1668;49.648;8.570;2022-09-06T09:12:53;21.80;99.90
3312;DHT22;1668;49.648;8.570;2022-09-06T09:15:20;21.90;99.90
3312;DHT22;1668;49.648;8.570;2022-09-06T09:17:49;21.90;99.90
3312;DHT22;1668;49.648;8.570;2022-09-06T09:20:19;22.00;99.90
3312;DHT22;1668;49.648;8.570;2022-09-06T09:22:46;22.10;99.90
3312;DHT22;1668;49.648;8.570;2022-09-06T09:25:18;22.20;99.90
3312;DHT22;1668;49.648;8.570;2022-09-06T09:27:46;22.40;99.90
3312;DHT22;1668;49.648;8.570;2022-09-06T09:30:15;22.40;99.90
3312;DHT22;1668;49.648;8.570;2022-09-06T09:32:43;22.50;99.90
3312;DHT22;1668;49.648;8.570;2022-09-06T09:35:21;22.50;99.90
3312;DHT22;1668;49.648;8.570;2022-09-06T09:37:57;22.50;99.90
3312;DHT22;1668;49.648;8.570;2022-09-06T09:40:31;22.60;99.90
3312;DHT22;1668;49.648;8.570;2022-09-06T09:43:12;22.70;99.90
3312;DHT22;1668;49.648;8.570;2022-09-06T09:45:40;22.80;99.90
3312;DHT22;1668;49.648;8.570;2022-09-06T09:48:27;22.80;99.90
3312;DHT22;1668;49.648;8.570;2022-09-06T09:50:55;23.00;99.90
3312;DHT22;1668;49.648;8.570;2022-09-06T09:53:49;23.00;99.90
3312;DHT22;1668;49.648;8.570;2022-09-06T09:56:16;23.10;99.90
3312;DHT22;1668;49.648;8.570;2022-09-06T09:58:43;23.10;99.90
3312;DHT22;1668;49.648;8.570;2022-09-06T10:01:14;23.20;99.90
3312;DHT22;1668;49.648;8.570;2022-09-06T10:03:43;23.40;99.80
3312;DHT22;1668;49.648;8.570;2022-09-06T10:06:12;23.50;99.00
3312;DHT22;1668;49.648;8.570;2022-09-06T10:08:42;23.50;98.90
3312;DHT22;1668;49.648;8.570;2022-09-06T10:11:13;23.60;99.90
3312;DHT22;1668;49.648;8.570;2022-09-06T10:13:40;23.60;98.00
3312;DHT22;1668;49.648;8.570;2022-09-06T10:16:07;23.80;98.80
3312;DHT22;1668;49.648;8.570;2022-09-06T10:18:36;23.80;98.10
3312;DHT22;1668;49.648;8.570;2022-09-06T10:21:05;23.80;97.60
3312;DHT22;1668;49.648;8.570;2022-09-06T10:23:40;23.80;97.70
3312;DHT22;1668;49.648;8.570;2022-09-06T10:26:17;23.90;99.00
3312;DHT22;1668;49.648;8.570;2022-09-06T10:28:44;24.00;98.10
3312;DHT22;1668;49.648;8.570;2022-09-06T10:31:55;24.00;97.30
3312;DHT22;1668;49.648;8.570;2022-09-06T10:37:47;24.20;98.10
3312;DHT22;1668;49.648;8.570;2022-09-06T10:40:32;24.40;97.60
3312;DHT22;1668;49.648;8.570;2022-09-06T10:43:00;24.50;97.40
3312;DHT22;1668;49.648;8.570;2022-09-06T10:45:43;24.50;95.80
3312;DHT22;1668;49.648;8.570;2022-09-06T10:48:16;24.70;95.70
3312;DHT22;1668;49.648;8.570;2022-09-06T10:50:49;24.90;95.40
3312;DHT22;1668;49.648;8.570;2022-09-06T10:53:31;25.00;96.10
3312;DHT22;1668;49.648;8.570;2022-09-06T10:56:07;25.00;94.10
3312;DHT22;1668;49.648;8.570;2022-09-06T10:58:42;25.10;94.80
3312;DHT22;1668;49.648;8.570;2022-09-06T11:01:20;25.20;94.20
3312;DHT22;1668;49.648;8.570;2022-09-06T11:03:49;25.40;94.40
3312;DHT22;1668;49.648;8.570;2022-09-06T11:06:18;25.50;95.00
3312;DHT22;1668;49.648;8.570;2022-09-06T11:08:52;25.70;93.00
3312;DHT22;1668;49.648;8.570;2022-09-06T11:11:25;25.80;93.60
3312;DHT22;1668;49.648;8.570;2022-09-06T11:13:54;25.80;91.10
3312;DHT22;1668;49.648;8.570;2022-09-06T11:16:24;25.80;91.00
3312;DHT22;1668;49.648;8.570;2022-09-06T11:18:57;26.00;91.00
3312;DHT22;1668;49.648;8.570;2022-09-06T11:21:49;26.00;91.40
3312;DHT22;1668;49.648;8.570;2022-09-06T11:24:28;26.20;90.30
3312;DHT22;1668;49.648;8.570;2022-09-06T11:27:03;26.40;91.50
3312;DHT22;1668;49.648;8.570;2022-09-06T11:29:32;26.50;87.10
3312;DHT22;1668;49.648;8.570;2022-09-06T11:32:01;26.40;85.70
3312;DHT22;1668;49.648;8.570;2022-09-06T11:34:31;26.60;84.10
3312;DHT22;1668;49.648;8.570;2022-09-06T11:37:00;26.60;87.60
3312;DHT22;1668;49.648;8.570;2022-09-06T11:39:30;26.70;88.30
3312;DHT22;1668;49.648;8.570;2022-09-06T11:41:59;26.80;85.60
3312;DHT22;1668;49.648;8.570;2022-09-06T11:44:51;26.90;85.10
3312;DHT22;1668;49.648;8.570;2022-09-06T11:47:39;27.00;85.90
3312;DHT22;1668;49.648;8.570;2022-09-06T11:50:57;27.10;84.70
3312;DHT22;1668;49.648;8.570;2022-09-06T11:53:27;27.30;84.20
3312;DHT22;1668;49.648;8.570;2022-09-06T11:56:10;27.40;80.00
3312;DHT22;1668;49.648;8.570;2022-09-06T11:58:49;27.50;82.70
3312;DHT22;1668;49.648;8.570;2022-09-06T12:01:35;27.50;81.70
3312;DHT22;1668;49.648;8.570;2022-09-06T12:04:11;27.50;80.30
3312;DHT22;1668;49.648;8.570;2022-09-06T12:06:40;27.60;78.90
3312;DHT22;1668;49.648;8.570;2022-09-06T12:09:26;27.60;77.60
3312;DHT22;1668;49.648;8.570;2022-09-06T12:11:54;27.70;73.40
3312;DHT22;1668;49.648;8.570;2022-09-06T12:14:32;27.70;73.50
3312;DHT22;1668;49.648;8.570;2022-09-06T12:17:24;27.80;75.10
3312;DHT22;1668;49.648;8.570;2022-09-06T12:19:52;27.90;73.10
3312;DHT22;1668;49.648;8.570;2022-09-06T12:25:50;28.10;73.50
3312;DHT22;1668;49.648;8.570;2022-09-06T12:28:36;28.20;74.70
3312;DHT22;1668;49.648;8.570;2022-09-06T12:31:28;28.20;74.20
3312;DHT22;1668;49.648;8.570;2022-09-06T12:33:57;28.20;73.10
3312;DHT22;1668;49.648;8.570;2022-09-06T12:36:26;28.40;68.70
3312;DHT22;1668;49.648;8.570;2022-09-06T12:38:57;28.50;68.20
3312;DHT22;1668;49.648;8.570;2022-09-06T12:41:26;28.70;65.80
3312;DHT22;1668;49.648;8.570;2022-09-06T12:43:54;28.80;66.90
3312;DHT22;1668;49.648;8.570;2022-09-06T12:46:23;28.90;72.00
3312;DHT22;1668;49.648;8.570;2022-09-06T12:49:02;28.90;66.30
3312;DHT22;1668;49.648;8.570;2022-09-06T12:51:30;29.00;66.40
3312;DHT22;1668;49.648;8.570;2022-09-06T12:53:58;29.00;67.60
3312;DHT22;1668;49.648;8.570;2022-09-06T12:56:27;29.00;69.60
3312;DHT22;1668;49.648;8.570;2022-09-06T12:59:10;29.20;69.60
3312;DHT22;1668;49.648;8.570;2022-09-06T13:01:40;29.20;68.70
3312;DHT22;1668;49.648;8.570;2022-09-06T13:04:13;29.20;65.80
3312;DHT22;1668;49.648;8.570;2022-09-06T13:06:44;29.20;68.50
3312;DHT22;1668;49.648;8.570;2022-09-06T13:09:14;29.30;65.90
3312;DHT22;1668;49.648;8.570;2022-09-06T13:11:43;29.30;66.10
3312;DHT22;1668;49.648;8.570;2022-09-06T13:14:11;29.30;66.10
3312;DHT22;1668;49.648;8.570;2022-09-06T13:16:43;29.60;65.60
3312;DHT22;1668;49.648;8.570;2022-09-06T13:19:13;29.60;65.50
3312;DHT22;1668;49.648;8.570;2022-09-06T13:21:44;29.70;67.90
3312;DHT22;1668;49.648;8.570;2022-09-06T13:24:19;29.70;66.80
3312;DHT22;1668;49.648;8.570;2022-09-06T13:26:46;29.70;67.60
3312;DHT22;1668;49.648;8.570;2022-09-06T13:29:27;29.70;65.70
3312;DHT22;1668;49.648;8.570;2022-09-06T13:31:56;29.70;68.40
3312;DHT22;1668;49.648;8.570;2022-09-06T13:34:26;29.70;69.80
3312;DHT22;1668;49.648;8.570;2022-09-06T13:36:55;29.70;67.80
3312;DHT22;1668;49.648;8.570;2022-09-06T13:39:29;29.70;67.10
3312;DHT22;1668;49.648;8.570;2022-09-06T13:42:00;29.80;67.40
3312;DHT22;1668;49.648;8.570;2022-09-06T13:44:28;29.90;66.80
3312;DHT22;1668;49.648;8.570;2022-09-06T13:46:55;29.90;67.40
3312;DHT22;1668;49.648;8.570;2022-09-06T13:49:24;30.10;65.80
3312;DHT22;1668;49.648;8.570;2022-09-06T13:51:53;30.30;65.70
3312;DHT22;1668;49.648;8.570;2022-09-06T13:54:20;30.50;64.30
3312;DHT22;1668;49.648;8.570;2022-09-06T13:56:48;30.70;65.40
3312;DHT22;1668;49.648;8.570;2022-09-06T13:59:15;30.60;65.20
3312;DHT22;1668;49.648;8.570;2022-09-06T14:01:44;30.60;65.10
3312;DHT22;1668;49.648;8.570;2022-09-06T14:04:13;30.70;64.90
3312;DHT22;1668;49.648;8.570;2022-09-06T14:06:42;30.80;63.60
3312;DHT22;1668;49.648;8.570;2022-09-06T14:09:09;30.80;66.10
3312;DHT22;1668;49.648;8.570;2022-09-06T14:11:36;31.20;63.40
3312;DHT22;1668;49.648;8.570;2022-09-06T14:14:04;31.30;61.70
3312;DHT22;1668;49.648;8.570;2022-09-06T14:16:32;31.10;59.70
3312;DHT22;1668;49.648;8.570;2022-09-06T14:18:59;30.90;61.70
3312;DHT22;1668;49.648;8.570;2022-09-06T14:21:26;30.80;61.60
3312;DHT22;1668;49.648;8.570;2022-09-06T14:23:54;30.60;64.60
3312;DHT22;1668;49.648;8.570;2022-09-06T14:26:22;30.60;63.20
3312;DHT22;1668;49.648;8.570;2022-09-06T14:28:49;30.80;65.20
3312;DHT22;1668;49.648;8.570;2022-09-06T14:31:18;30.90;63.90
3312;DHT22;1668;49.648;8.570;2022-09-06T14:33:45;31.00;63.30
3312;DHT22;1668;49.648;8.570;2022-09-06T14:36:13;31.10;61.00
3312;DHT22;1668;49.648;8.570;2022-09-06T14:38:42;31.30;61.10
3312;DHT22;1668;49.648;8.570;2022-09-06T14:41:11;31.40;59.60
3312;DHT22;1668;49.648;8.570;2022-09-06T14:43:40;31.50;58.40
3312;DHT22;1668;49.648;8.570;2022-09-06T14:46:09;31.50;56.10
3312;DHT22;1668;49.648;8.570;2022-09-06T14:48:36;31.40;54.40
3312;DHT22;1668;49.648;8.570;2022-09-06T14:51:08;31.30;55.20
3312;DHT22;1668;49.648;8.570;2022-09-06T14:53:37;31.30;52.80
3312;DHT22;1668;49.648;8.570;2022-09-06T14:56:05;31.40;53.50
3312;DHT22;1668;49.648;8.570;2022-09-06T14:58:35;31.50;54.00
3312;DHT22;1668;49.648;8.570;2022-09-06T15:01:11;31.50;54.30
3312;DHT22;1668;49.648;8.570;2022-09-06T15:03:39;31.50;51.60
3312;DHT22;1668;49.648;8.570;2022-09-06T15:06:06;31.50;53.70
3312;DHT22;1668;49.648;8.570;2022-09-06T15:08:34;31.60;54.50
3312;DHT22;1668;49.648;8.570;2022-09-06T15:11:01;31.70;54.70
3312;DHT22;1668;49.648;8.570;2022-09-06T15:13:29;31.70;55.30
3312;DHT22;1668;49.648;8.570;2022-09-06T15:15:58;31.80;53.40
3312;DHT22;1668;49.648;8.570;2022-09-06T15:18:25;31.80;53.00
3312;DHT22;1668;49.648;8.570;2022-09-06T15:20:51;31.90;51.20
3312;DHT22;1668;49.648;8.570;2022-09-06T15:23:19;31.80;49.60
3312;DHT22;1668;49.648;8.570;2022-09-06T15:25:48;31.50;50.30
3312;DHT22;1668;49.648;8.570;2022-09-06T15:28:15;31.40;47.60
3312;DHT22;1668;49.648;8.570;2022-09-06T15:30:43;31.20;50.20
3312;DHT22;1668;49.648;8.570;2022-09-06T15:33:12;31.10;50.30
3312;DHT22;1668;49.648;8.570;2022-09-06T15:35:40;31.00;49.00
3312;DHT22;1668;49.648;8.570;2022-09-06T15:38:07;30.90;49.60
3312;DHT22;1668;49.648;8.570;2022-09-06T15:40:35;30.70;47.80
3312;DHT22;1668;49.648;8.570;2022-09-06T15:43:02;30.60;49.30
3312;DHT22;1668;49.648;8.570;2022-09-06T15:45:29;30.50;50.30
3312;DHT22;1668;49.648;8.570;2022-09-06T15:47:56;30.40;51.50
3312;DHT22;1668;49.648;8.570;2022-09-06T15:50:24;30.30;53.60
3312;DHT22;1668;49.648;8.570;2022-09-06T15:52:51;30.20;52.00
3312;DHT22;1668;49.648;8.570;2022-09-06T15:55:18;30.10;53.00
3312;DHT22;1668;49.648;8.570;2022-09-06T15:58:02;30.00;52.70
3312;DHT22;1668;49.648;8.570;2022-09-06T16:00:29;29.90;53.40
3312;DHT22;1668;49.648;8.570;2022-09-06T16:02:56;29.90;53.40
3312;DHT22;1668;49.648;8.570;2022-09-06T16:05:25;29.80;54.90
3312;DHT22;1668;49.648;8.570;2022-09-06T16:07:52;29.70;55.00
3312;DHT22;1668;49.648;8.570;2022-09-06T16:10:19;29.60;55.60
3312;DHT22;1668;49.648;8.570;2022-09-06T16:12:46;29.60;55.70
3312;DHT22;1668;49.648;8.570;2022-09-06T16:15:12;29.50;56.60
3312;DHT22;1668;49.648;8.570;2022-09-06T16:17:39;29.50;57.10
3312;DHT22;1668;49.648;8.570;2022-09-06T16:20:07;29.50;56.10
3312;DHT22;1668;49.648;8.570;2022-09-06T16:22:36;29.50;56.40
3312;DHT22;1668;49.648;8.570;2022-09-06T16:25:04;29.40;57.60
3312;DHT22;1668;49.648;8.570;2022-09-06T16:27:31;29.40;57.00
3312;DHT22;1668;49.648;8.570;2022-09-06T16:29:58;29.40;57.30
3312;DHT22;1668;49.648;8.570;2022-09-06T16:32:25;29.30;57.10